Pays
Station

 

Conditions  météo  pour  Scilly, Saint Mary'S  -  Royaume-Uni    Royaume-Uni

  
17 °C
    
 
 

METAR pour Scilly, Saint Mary'S :

EGHE 191650Z 22011KT 9999 SCT004 SCT026 17/15 Q1024

 

Voici le bulletin pour Scilly, Saint Mary'S - Royaume-Uni.
 
Le bulletin a été fait il y a 9 heures et 11 minutes, à 16:50 UTC .
Le vent soufflait à la vitesse de 5.7 mètres par seconde de Sud-ouest (220°).
 
La température était de 17 °C, avec un point de rosée à 15 °C.
La pression atmosphérique était de 1024 hPa.
L'humidité relative était de 88.0%.
 
Il y avait 3 à 4/8ème de nébulosité à une hauteur de 122 mètres et 3 à 4/8ème de nébulosité à une hauteur de 792 mètres.
 
La visibilité globale était de supérieure à 10 kilomètres.
 

 
 
 

Pays :   A   B   C   D   E   F   G   H   I   J   K   L   M   N   O   P   Q   R   S   T   U   V   W   Y   Z

 

Partenaires :  Info Météo avec Met'info
Météo Marine avec MeteoMarine.net
Infos Site  |  Infos Légales  |  Crédits  |  Confidentialité
Contactez-nous  |  Ajouter aux favoris
© 2013-2018 METAR - Tous droits réservés